Time;durP1;ratioP1;P1;durP2;ratioP2;P2;SDS_P1;SDS_P2;PMS_P1;PMS_P2;Temp;Humidity;BMP_temperature;BMP_pressure;BME280_temperature;BME280_humidity;BME280_pressure;Samples;Min_cycle;Max_cycle;Signal;HPM_P1;HPM_P2
2023/11/07 00:00:39;;;;;;;;;;;;;;;29.66;74.75;100971.63;5105195;27;66352;-39
2023/11/07 00:03:09;;;;;;;;;;;;;;;29.64;76.84;100983.69;5090956;27;69948;-39
2023/11/07 00:05:39;;;;;;;;;;;;;;;29.63;75.61;100985.56;5103687;27;66643;-39
2023/11/07 00:08:09;;;;;;;;;;;;;;;29.67;77.02;100997.63;5104305;27;70237;-40
2023/11/07 00:10:39;;;;;;;;;;;;;;;29.66;75.17;100997.81;5102180;27;66650;-38
2023/11/07 00:13:09;;;;;;;;;;;;;;;29.67;74.09;101005.75;5104521;27;70666;-39
2023/11/07 00:15:39;;;;;;;;;;;;;;;29.69;77.59;101009.03;5091560;27;66482;-38
2023/11/07 00:18:08;;;;;;;;;;;;;;;29.68;78.04;101004.69;5102955;27;70018;-39
2023/11/07 00:20:38;;;;;;;;;;;;;;;29.73;77.78;101010.31;5104914;27;65926;-39
2023/11/07 00:23:09;;;;;;;;;;;;;;;29.75;77.96;101004.66;5085668;27;69164;-38
2023/11/07 00:25:39;;;;;;;;;;;;;;;29.75;77.51;101013.59;5101411;27;66709;-38
2023/11/07 00:28:10;;;;;;;;;;;;;;;29.75;78.29;101008.19;5101665;27;70543;-37
2023/11/07 00:30:40;;;;;;;;;;;;;;;29.49;78.21;100975.75;5084805;27;66910;-37
2023/11/07 00:33:10;;;;;;;;;;;;;;;29.78;77.29;101020.47;5082359;27;69762;-38
2023/11/07 00:35:41;;;;;;;;;;;;;;;29.78;77.81;101032.16;5102755;27;66997;-37
2023/11/07 00:38:11;;;;;;;;;;;;;;;29.78;77.65;101034.84;5084649;27;70662;-38
2023/11/07 00:40:40;;;;;;;;;;;;;;;29.49;77.30;100978.47;5100317;27;66761;-38
2023/11/07 00:43:10;;;;;;;;;;;;;;;29.80;78.62;101043.56;5101689;27;70499;-38
2023/11/07 00:45:40;;;;;;;;;;;;;;;29.81;76.36;101047.94;5101860;27;67142;-37
2023/11/07 00:48:10;;;;;;;;;;;;;;;29.83;74.57;101053.94;5100323;27;70436;-36
2023/11/07 00:50:41;;;;;;;;;;;;;;;29.88;73.27;101049.81;5083087;27;66153;-37
2023/11/07 00:53:10;;;;;;;;;;;;;;;29.89;72.05;101056.88;5082663;27;70944;-37
2023/11/07 00:55:40;;;;;;;;;;;;;;;29.92;71.81;101061.84;5101539;27;65634;-37
2023/11/07 00:58:10;;;;;;;;;;;;;;;29.94;70.78;101065.19;5098226;27;70013;-36
2023/11/07 01:00:40;;;;;;;;;;;;;;;29.97;70.44;101075.59;5100549;27;66299;-37
2023/11/07 01:03:09;;;;;;;;;;;;;;;29.98;70.77;101074.56;5096526;27;70416;-36
2023/11/07 01:05:39;;;;;;;;;;;;;;;30.00;70.20;101084.09;5090074;27;66355;-36
2023/11/07 01:08:09;;;;;;;;;;;;;;;30.03;70.29;101096.38;5100625;27;70963;-37
2023/11/07 01:10:39;;;;;;;;;;;;;;;30.05;69.53;101094.31;5100008;27;66219;-36
2023/11/07 01:13:09;;;;;;;;;;;;;;;30.07;69.39;101103.06;5101834;27;70503;-37
2023/11/07 01:15:39;;;;;;;;;;;;;;;30.09;69.51;101103.69;5084057;27;67236;-36
2023/11/07 01:18:08;;;;;;;;;;;;;;;30.10;69.30;101102.63;5100679;27;70077;-37
2023/11/07 01:20:38;;;;;;;;;;;;;;;30.13;69.52;101104.09;5103329;27;66126;-37
2023/11/07 01:23:08;;;;;;;;;;;;;;;30.14;69.42;101106.56;5062482;28;69599;-37
2023/11/07 01:25:38;;;;;;;;;;;;;;;30.14;69.27;101109.28;5078785;27;66492;-36
2023/11/07 01:28:08;;;;;;;;;;;;;;;30.16;69.00;101118.00;5102221;27;70567;-37
2023/11/07 01:30:38;;;;;;;;;;;;;;;30.18;68.93;101118.66;5100895;27;66459;-37
2023/11/07 01:33:09;;;;;;;;;;;;;;;30.20;68.93;101119.28;5101309;27;70605;-37
2023/11/07 01:35:42;;;;;;;;;;;;;;;30.22;68.96;101130.72;5082059;27;66955;-37
2023/11/07 01:38:12;;;;;;;;;;;;;;;30.24;69.31;101141.34;5100666;27;70613;-36
2023/11/07 01:40:41;;;;;;;;;;;;;;;30.25;69.46;101135.72;5082141;27;66981;-36
2023/11/07 01:43:15;;;;;;;;;;;;;;;30.26;68.75;101142.81;5101347;27;70460;-37
2023/11/07 01:45:45;;;;;;;;;;;;;;;30.28;68.83;101142.59;5096067;27;65778;-36
2023/11/07 01:48:20;;;;;;;;;;;;;;;30.29;68.97;101138.84;5097732;27;70023;-36
2023/11/07 01:50:51;;;;;;;;;;;;;;;30.32;68.93;101143.03;5099685;27;66906;-37
2023/11/07 01:53:20;;;;;;;;;;;;;;;30.33;69.24;101126.56;5099182;27;70554;-36
2023/11/07 01:55:50;;;;;;;;;;;;;;;30.35;68.86;101129.06;5099913;27;66075;-37
2023/11/07 01:58:20;;;;;;;;;;;;;;;30.37;68.84;101132.38;5074192;27;70419;-36
2023/11/07 02:00:53;;;;;;;;;;;;;;;30.38;69.00;101123.22;5080229;27;66357;-37
2023/11/07 02:03:24;;;;;;;;;;;;;;;30.41;68.67;101130.94;5100646;27;70028;-38
2023/11/07 02:05:55;;;;;;;;;;;;;;;30.43;68.59;101115.31;5075908;27;66338;-36
2023/11/07 02:08:25;;;;;;;;;;;;;;;30.45;68.54;101116.75;5098582;27;70861;-37
2023/11/07 02:10:56;;;;;;;;;;;;;;;30.46;68.86;101118.41;5080343;27;67063;-37
2023/11/07 02:13:27;;;;;;;;;;;;;;;30.48;68.64;101116.34;5100109;27;69198;-38
2023/11/07 02:15:56;;;;;;;;;;;;;;;30.50;68.34;101116.94;5080413;27;67682;-36
2023/11/07 02:18:26;;;;;;;;;;;;;;;30.54;68.53;101121.97;5082943;27;70041;-37
2023/11/07 02:20:56;;;;;;;;;;;;;;;30.55;68.27;101115.47;5100561;27;66142;-36
2023/11/07 02:23:30;;;;;;;;;;;;;;;30.56;68.48;101112.53;5100887;27;70390;-37
2023/11/07 02:26:00;;;;;;;;;;;;;;;30.59;68.42;101116.72;5097016;27;66431;-37
2023/11/07 02:28:31;;;;;;;;;;;;;;;30.61;68.41;101120.03;5099611;27;70043;-36
2023/11/07 02:31:01;;;;;;;;;;;;;;;30.63;68.34;101117.97;5102820;27;66488;-38
2023/11/07 02:33:37;;;;;;;;;;;;;;;30.64;68.12;101125.03;5083868;27;62576;-37
2023/11/07 02:36:07;;;;;;;;;;;;;;;30.66;68.21;101126.47;5099694;27;66978;-38
2023/11/07 02:38:37;;;;;;;;;;;;;;;30.68;68.31;101120.88;5092754;27;70615;-37
2023/11/07 02:41:07;;;;;;;;;;;;;;;30.70;68.18;101127.72;5077427;27;66665;-37
2023/11/07 02:43:37;;;;;;;;;;;;;;;30.72;68.30;101117.50;5081699;27;69570;-36
2023/11/07 02:46:07;;;;;;;;;;;;;;;30.76;68.00;101114.34;5083408;27;66939;-36
2023/11/07 02:48:37;;;;;;;;;;;;;;;30.77;68.14;101116.88;5101122;27;69669;-37
2023/11/07 02:51:14;;;;;;;;;;;;;;;30.80;68.15;101104.81;5082282;27;66941;-38
2023/11/07 02:53:47;;;;;;;;;;;;;;;30.82;67.93;101106.25;5101829;27;69779;-36
2023/11/07 02:56:19;;;;;;;;;;;;;;;30.83;67.96;101101.66;5065644;27;65231;-37
2023/11/07 02:58:49;;;;;;;;;;;;;;;30.87;67.66;101100.19;5100405;27;70378;-37
2023/11/07 03:01:21;;;;;;;;;;;;;;;30.87;67.69;101092.06;5100849;27;66865;-37
2023/11/07 03:03:54;;;;;;;;;;;;;;;30.89;67.65;101089.97;5079753;27;69925;-36
2023/11/07 03:06:25;;;;;;;;;;;;;;;30.92;67.72;101081.41;5099368;27;66099;-37
2023/11/07 03:08:55;;;;;;;;;;;;;;;30.93;68.08;101081.19;5113180;27;69831;-36
2023/11/07 03:11:26;;;;;;;;;;;;;;;30.96;67.89;101069.09;5099889;27;66119;-36
2023/11/07 03:13:56;;;;;;;;;;;;;;;30.98;67.70;101072.44;5099662;27;69792;-36
2023/11/07 03:16:26;;;;;;;;;;;;;;;30.99;67.66;101057.84;5101774;27;66639;-37
2023/11/07 03:18:55;;;;;;;;;;;;;;;31.02;67.28;101070.13;5099491;27;70640;-36
2023/11/07 03:21:26;;;;;;;;;;;;;;;31.03;67.51;101059.03;5083399;27;66989;-37
2023/11/07 03:23:55;;;;;;;;;;;;;;;31.05;67.64;101056.97;5082646;27;69910;-40
2023/11/07 03:26:25;;;;;;;;;;;;;;;31.07;67.49;101060.28;5101746;27;66388;-38
2023/11/07 03:28:55;;;;;;;;;;;;;;;31.08;67.24;101056.53;5100234;27;70853;-37
2023/11/07 03:31:26;;;;;;;;;;;;;;;31.09;67.13;101052.78;5100782;27;66265;-36
2023/11/07 03:33:56;;;;;;;;;;;;;;;31.11;67.14;101050.66;5097351;27;69780;-37
2023/11/07 03:36:26;;;;;;;;;;;;;;;31.12;67.68;101038.78;5083588;27;65519;-37
2023/11/07 03:38:56;;;;;;;;;;;;;;;31.14;67.52;101033.97;5100673;27;70661;-37
2023/11/07 03:41:27;;;;;;;;;;;;;;;31.16;67.49;101031.88;5099493;27;66020;-37
2023/11/07 03:43:57;;;;;;;;;;;;;;;31.19;67.33;101040.63;5100822;27;69200;-37
2023/11/07 03:46:27;;;;;;;;;;;;;;;31.20;67.43;101029.56;5101928;27;65154;-37
2023/11/07 03:48:57;;;;;;;;;;;;;;;31.21;67.25;101023.09;5081151;27;70311;-38
2023/11/07 03:51:27;;;;;;;;;;;;;;;31.24;67.35;101011.00;5100598;27;66805;-37
2023/11/07 03:53:57;;;;;;;;;;;;;;;31.25;67.07;101012.66;5099781;27;69685;-38
2023/11/07 03:56:27;;;;;;;;;;;;;;;31.26;66.98;101008.88;5098270;27;66839;-37
2023/11/07 03:58:56;;;;;;;;;;;;;;;31.28;67.04;101002.19;5075829;28;70677;-37
2023/11/07 04:01:36;;;;;;;;;;;;;;;31.29;67.25;100994.91;5081467;27;66317;-38
2023/11/07 04:04:06;;;;;;;;;;;;;;;31.32;67.23;100991.75;5072137;27;69228;-36
2023/11/07 04:06:36;;;;;;;;;;;;;;;31.34;66.99;100984.22;5051008;27;66181;-38
2023/11/07 04:09:07;;;;;;;;;;;;;;;31.36;66.97;100993.00;5097470;27;69958;-36
2023/11/07 04:11:37;;;;;;;;;;;;;;;31.37;66.80;100986.50;5099456;27;66811;-37
2023/11/07 04:14:07;;;;;;;;;;;;;;;31.39;66.74;100981.69;5100243;27;69919;-37
2023/11/07 04:16:38;;;;;;;;;;;;;;;31.41;66.76;100976.91;5093999;27;66032;-41
2023/11/07 04:19:08;;;;;;;;;;;;;;;31.43;66.66;100966.66;5103361;27;70015;-37
2023/11/07 04:21:38;;;;;;;;;;;;;;;31.45;66.73;100959.13;5103258;27;67003;-37
2023/11/07 04:24:08;;;;;;;;;;;;;;;31.47;66.52;100962.44;5101635;27;70754;-36
2023/11/07 04:26:37;;;;;;;;;;;;;;;31.49;66.48;100949.50;5102782;27;66492;-36
2023/11/07 04:29:08;;;;;;;;;;;;;;;31.52;66.59;100956.38;5102632;27;71299;-36
2023/11/07 04:31:38;;;;;;;;;;;;;;;31.55;66.27;100953.22;5101619;27;65556;-36
2023/11/07 04:34:09;;;;;;;;;;;;;;;31.56;66.26;100949.44;5102951;27;70181;-37
2023/11/07 04:36:39;;;;;;;;;;;;;;;31.57;66.61;100938.38;5092858;27;67103;-37
2023/11/07 04:39:13;;;;;;;;;;;;;;;31.60;66.54;100947.94;5100508;27;70619;-37
2023/11/07 04:41:43;;;;;;;;;;;;;;;31.62;66.35;100943.09;5085063;27;66342;-37
2023/11/07 04:44:12;;;;;;;;;;;;;;;31.65;66.40;100936.41;5102282;27;70742;-36
2023/11/07 04:46:43;;;;;;;;;;;;;;;31.67;66.21;100943.28;5101290;27;66818;-37
2023/11/07 04:49:13;;;;;;;;;;;;;;;31.70;66.29;100939.28;5102808;27;69918;-37
2023/11/07 04:51:44;;;;;;;;;;;;;;;31.72;66.29;100938.00;5101910;27;66799;-36
2023/11/07 04:54:13;;;;;;;;;;;;;;;31.76;65.93;100932.94;5102583;27;69506;-36
2023/11/07 04:56:44;;;;;;;;;;;;;;;31.77;65.96;100921.91;5102651;27;66543;-39
2023/11/07 04:59:14;;;;;;;;;;;;;;;31.79;66.10;100917.09;5101960;27;70287;-37
2023/11/07 05:01:47;;;;;;;;;;;;;;;31.81;65.89;100920.38;5100332;27;67764;-36
2023/11/07 05:04:17;;;;;;;;;;;;;;;31.82;65.89;100911.19;5100344;27;69761;-37
2023/11/07 05:06:47;;;;;;;;;;;;;;;31.86;65.80;100905.31;5099391;27;65934;-37
2023/11/07 05:09:17;;;;;;;;;;;;;;;31.88;65.80;100904.03;5102259;27;70516;-37
2023/11/07 05:11:47;;;;;;;;;;;;;;;31.89;65.67;100894.00;5102233;27;66527;-37
2023/11/07 05:14:17;;;;;;;;;;;;;;;31.91;65.69;100892.78;5102219;27;69152;-41
2023/11/07 05:16:47;;;;;;;;;;;;;;;31.92;65.77;100886.28;5101715;27;67548;-37
2023/11/07 05:19:17;;;;;;;;;;;;;;;31.95;65.62;100883.09;5102946;27;69921;-37
2023/11/07 05:21:47;;;;;;;;;;;;;;;31.96;65.51;100871.22;5096060;27;66056;-37
2023/11/07 05:24:17;;;;;;;;;;;;;;;31.98;65.54;100871.81;5098017;27;69816;-37
2023/11/07 05:26:47;;;;;;;;;;;;;;;31.99;65.36;100857.19;5101968;27;66007;-37
2023/11/07 05:29:17;;;;;;;;;;;;;;;32.00;65.16;100852.59;5101817;27;70897;-37
2023/11/07 05:31:47;;;;;;;;;;;;;;;32.01;65.16;100852.38;5097645;27;66758;-37
2023/11/07 05:34:17;;;;;;;;;;;;;;;32.02;65.12;100843.16;5101413;27;70208;-37
2023/11/07 05:36:48;;;;;;;;;;;;;;;32.04;65.24;100838.34;5101563;27;67549;-38
2023/11/07 05:39:18;;;;;;;;;;;;;;;32.05;65.07;100834.56;5084027;27;70242;-37
2023/11/07 05:41:48;;;;;;;;;;;;;;;32.07;65.12;100830.78;5103038;27;65565;-36
2023/11/07 05:44:18;;;;;;;;;;;;;;;32.07;65.15;100825.34;5101083;27;69993;-38
2023/11/07 05:46:49;;;;;;;;;;;;;;;32.08;64.81;100821.59;5101855;27;66272;-37
2023/11/07 05:49:19;;;;;;;;;;;;;;;32.11;65.02;100821.13;5101519;27;69754;-37
2023/11/07 05:51:50;;;;;;;;;;;;;;;32.03;64.84;100808.72;5099991;27;67081;-37
2023/11/07 05:54:20;;;;;;;;;;;;;;;32.17;64.91;100822.91;5101582;27;69434;-38
2023/11/07 05:56:50;;;;;;;;;;;;;;;32.19;64.50;100812.66;5101570;27;66704;-37
2023/11/07 05:59:20;;;;;;;;;;;;;;;32.18;64.73;100808.28;5099956;27;69740;-37
2023/11/07 06:01:50;;;;;;;;;;;;;;;32.20;64.86;100814.31;5101976;27;66932;-38
2023/11/07 06:04:30;;;;;;;;;;;;;;;32.21;64.99;100805.13;5101669;27;70292;-37
2023/11/07 06:07:00;;;;;;;;;;;;;;;32.21;64.69;100799.72;5100538;27;67153;-37
2023/11/07 06:09:30;;;;;;;;;;;;;;;32.23;64.79;100797.56;5099971;27;70571;-37
2023/11/07 06:12:00;;;;;;;;;;;;;;;32.25;64.62;100795.44;5099991;27;66183;-36
2023/11/07 06:14:30;;;;;;;;;;;;;;;32.23;64.61;100782.13;5098610;27;70308;-37
2023/11/07 06:17:00;;;;;;;;;;;;;;;32.25;64.36;100779.16;5099661;27;67074;-37
2023/11/07 06:19:29;;;;;;;;;;;;;;;32.24;64.55;100767.50;5099149;27;70381;-37
2023/11/07 06:21:59;;;;;;;;;;;;;;;32.24;64.44;100762.06;5098016;27;66917;-36
2023/11/07 06:24:29;;;;;;;;;;;;;;;32.26;64.42;100762.66;5097278;27;70325;-37
2023/11/07 06:26:59;;;;;;;;;;;;;;;32.25;64.20;100752.84;5099722;27;66874;-36
2023/11/07 06:29:29;;;;;;;;;;;;;;;32.26;64.14;100742.81;5098952;27;70644;-37
2023/11/07 06:31:59;;;;;;;;;;;;;;;32.27;64.46;100733.63;5099903;27;67368;-36
2023/11/07 06:34:28;;;;;;;;;;;;;;;32.28;64.34;100735.28;5100510;27;69855;-36
2023/11/07 06:36:59;;;;;;;;;;;;;;;32.27;64.29;100734.44;5100079;27;66355;-36
2023/11/07 06:39:29;;;;;;;;;;;;;;;32.26;64.04;100732.81;5099486;27;69666;-36
2023/11/07 06:41:59;;;;;;;;;;;;;;;32.27;64.29;100723.59;5101158;27;67060;-37
2023/11/07 06:44:29;;;;;;;;;;;;;;;32.29;64.35;100717.94;5082248;27;71198;-37
2023/11/07 06:46:59;;;;;;;;;;;;;;;32.28;64.24;100719.00;5100485;27;66834;-37
2023/11/07 06:49:31;;;;;;;;;;;;;;;32.29;64.04;100715.22;5092856;27;70626;-36
2023/11/07 06:52:01;;;;;;;;;;;;;;;32.30;64.16;100703.31;5096509;27;66039;-37
2023/11/07 06:54:30;;;;;;;;;;;;;;;32.30;64.18;100703.31;5100009;27;70270;-36
2023/11/07 06:57:00;;;;;;;;;;;;;;;32.30;64.32;100689.72;5100383;27;66482;-36
2023/11/07 06:59:31;;;;;;;;;;;;;;;32.31;64.15;100685.13;5100472;27;70346;-37
2023/11/07 07:02:01;;;;;;;;;;;;;;;32.32;64.42;100674.03;5101454;27;66532;-37
2023/11/07 07:04:31;;;;;;;;;;;;;;;32.32;64.43;100665.91;5082440;27;69037;-37
2023/11/07 07:07:02;;;;;;;;;;;;;;;32.32;64.36;100676.75;5083204;27;66528;-36
2023/11/07 07:09:31;;;;;;;;;;;;;;;32.34;64.26;100681.94;5099935;27;70142;-37
2023/11/07 07:12:01;;;;;;;;;;;;;;;32.34;64.31;100674.63;5099612;27;65994;-37
2023/11/07 07:14:31;;;;;;;;;;;;;;;32.34;64.32;100680.03;5100999;27;70820;-37
2023/11/07 07:17:02;;;;;;;;;;;;;;;32.36;64.01;100666.25;5100027;27;66889;-37
2023/11/07 07:19:37;;;;;;;;;;;;;;;32.35;64.28;100660.00;5099286;27;69822;-36
2023/11/07 07:22:27;;;;;;;;;;;;;;;32.37;64.15;100657.03;5100530;27;66704;-37
2023/11/07 07:25:20;;;;;;;;;;;;;;;32.37;64.05;100655.13;5099383;27;69560;-37
2023/11/07 07:27:52;;;;;;;;;;;;;;;32.36;64.03;100648.06;5085636;27;66395;-36
2023/11/07 07:30:26;;;;;;;;;;;;;;;32.37;64.29;100649.72;5098020;27;69507;-38
2023/11/07 07:32:56;;;;;;;;;;;;;;;32.37;64.25;100660.56;5100293;27;66590;-37
2023/11/07 07:35:32;;;;;;;;;;;;;;;32.39;64.32;100676.63;5100287;27;70479;-37
2023/11/07 07:38:03;;;;;;;;;;;;;;;32.39;64.25;100672.03;5100171;27;65849;-36
2023/11/07 07:40:33;;;;;;;;;;;;;;;32.40;64.15;100668.28;5098920;27;70579;-37
2023/11/07 07:43:09;;;;;;;;;;;;;;;32.41;64.06;100671.81;5099838;27;66072;-37
2023/11/07 07:45:42;;;;;;;;;;;;;;;32.40;64.32;100662.84;5101120;27;71197;-37
2023/11/07 07:48:12;;;;;;;;;;;;;;;32.41;64.34;100664.47;5100532;27;66248;-36
2023/11/07 07:50:42;;;;;;;;;;;;;;;32.42;64.19;100676.16;5099744;27;70359;-37
2023/11/07 07:53:14;;;;;;;;;;;;;;;32.41;64.22;100678.06;5103685;27;66123;-36
2023/11/07 07:55:44;;;;;;;;;;;;;;;32.42;64.24;100674.25;5104957;27;71038;-36
2023/11/07 07:58:18;;;;;;;;;;;;;;;32.43;64.10;100673.22;5101841;27;66628;-37
2023/11/07 08:00:52;;;;;;;;;;;;;;;32.43;64.24;100654.22;5104118;27;70022;-37
2023/11/07 08:03:22;;;;;;;;;;;;;;;32.43;64.19;100650.66;5103336;27;67035;-37
2023/11/07 08:05:56;;;;;;;;;;;;;;;32.42;64.14;100655.25;5080363;27;69538;-36
2023/11/07 08:08:55;;;;;;;;;;;;;;;32.42;64.14;100666.13;5092643;27;66747;-37
2023/11/07 08:11:25;;;;;;;;;;;;;;;32.42;64.11;100671.56;5102006;27;70531;-37
2023/11/07 08:13:56;;;;;;;;;;;;;;;32.44;64.00;100684.91;5103856;27;67135;-37
2023/11/07 08:16:27;;;;;;;;;;;;;;;32.44;64.19;100696.59;5095864;27;69961;-36
2023/11/07 08:18:57;;;;;;;;;;;;;;;32.42;64.09;100704.13;5103939;27;65354;-37
2023/11/07 08:21:27;;;;;;;;;;;;;;;32.43;63.89;100697.66;5083642;27;69832;-37
2023/11/07 08:23:57;;;;;;;;;;;;;;;32.44;63.84;100699.28;5102629;27;66084;-37
2023/11/07 08:26:27;;;;;;;;;;;;;;;32.43;63.79;100700.38;5103229;27;69618;-37
2023/11/07 08:28:57;;;;;;;;;;;;;;;32.44;63.98;100701.19;5103601;27;66031;-36
2023/11/07 08:31:27;;;;;;;;;;;;;;;32.44;63.92;100702.00;5102331;27;70994;-36
2023/11/07 08:33:58;;;;;;;;;;;;;;;32.44;63.88;100691.16;5100763;27;66360;-37
2023/11/07 08:36:30;;;;;;;;;;;;;;;32.45;63.94;100678.41;5103537;27;69734;-37
2023/11/07 08:39:00;;;;;;;;;;;;;;;32.43;63.87;100673.22;5091181;27;66519;-36
2023/11/07 08:41:30;;;;;;;;;;;;;;;32.43;63.69;100675.94;5102433;27;69849;-36
2023/11/07 08:44:00;;;;;;;;;;;;;;;32.43;63.88;100677.81;5103188;27;66661;-36
2023/11/07 08:46:29;;;;;;;;;;;;;;;32.42;64.00;100687.84;5102312;27;70271;-36
2023/11/07 08:48:59;;;;;;;;;;;;;;;32.42;63.93;100679.69;5103342;27;65563;-37
2023/11/07 08:51:29;;;;;;;;;;;;;;;32.43;64.12;100689.50;5102534;27;69956;-37
2023/11/07 08:53:59;;;;;;;;;;;;;;;32.43;63.95;100697.66;5103228;27;66889;-37
2023/11/07 08:56:29;;;;;;;;;;;;;;;32.44;63.99;100698.47;5102774;27;69850;-37
2023/11/07 08:58:59;;;;;;;;;;;;;;;32.43;63.89;100699.53;5094328;27;66793;-37
2023/11/07 09:01:29;;;;;;;;;;;;;;;32.42;63.82;100715.00;5101956;27;68985;-37
2023/11/07 09:03:59;;;;;;;;;;;;;;;32.43;63.76;100719.38;5102509;27;67023;-36
2023/11/07 09:06:29;;;;;;;;;;;;;;;32.40;63.97;100722.56;5101106;27;69281;-36
2023/11/07 09:08:58;;;;;;;;;;;;;;;32.40;64.42;100722.56;5099640;27;67538;-37
2023/11/07 09:11:29;;;;;;;;;;;;;;;32.39;64.00;100726.31;5091153;27;70785;-36
2023/11/07 09:13:59;;;;;;;;;;;;;;;32.38;64.10;100730.09;5101686;27;66755;-36
2023/11/07 09:16:29;;;;;;;;;;;;;;;32.38;64.11;100729.28;5102127;27;69486;-38
2023/11/07 09:18:59;;;;;;;;;;;;;;;32.07;67.10;100738.53;5082813;27;66719;-37
2023/11/07 09:21:32;;;;;;;;;;;;;;;31.89;68.57;100729.38;5082141;27;70719;-37
2023/11/07 09:24:02;;;;;;;;;;;;;;;31.88;69.06;100729.63;5102558;27;66926;-37
2023/11/07 09:26:32;;;;;;;;;;;;;;;31.89;69.54;100732.06;5100888;27;70623;-38
2023/11/07 09:29:07;;;;;;;;;;;;;;;31.79;70.25;100738.06;5100001;27;66338;-37
2023/11/07 09:31:38;;;;;;;;;;;;;;;31.76;70.40;100732.25;5102054;27;70292;-37
2023/11/07 09:34:08;;;;;;;;;;;;;;;31.71;70.51;100729.44;5101493;27;66010;-37
2023/11/07 09:36:40;;;;;;;;;;;;;;;31.68;71.29;100725.28;5099164;27;69757;-38
2023/11/07 09:39:10;;;;;;;;;;;;;;;31.68;71.12;100708.16;5101993;27;65686;-39
2023/11/07 09:41:42;;;;;;;;;;;;;;;31.69;71.10;100721.50;5101118;27;69659;-38
2023/11/07 09:44:13;;;;;;;;;;;;;;;31.71;70.97;100718.59;5100283;27;66950;-38
2023/11/07 09:46:45;;;;;;;;;;;;;;;31.67;71.93;100711.94;5100779;27;69681;-38
2023/11/07 09:49:15;;;;;;;;;;;;;;;31.69;71.95;100715.25;5101884;27;67144;-38
2023/11/07 09:51:48;;;;;;;;;;;;;;;31.67;72.39;100718.19;5103088;27;69805;-38
2023/11/07 09:54:23;;;;;;;;;;;;;;;31.69;72.68;100715.25;5104870;27;67513;-39
2023/11/07 09:56:54;;;;;;;;;;;;;;;31.72;72.45;100720.22;5081973;27;70550;-38
2023/11/07 09:59:34;;;;;;;;;;;;;;;31.73;72.55;100730.88;5102305;27;65761;-38
2023/11/07 10:02:07;;;;;;;;;;;;;;;31.77;72.49;100733.94;5098390;27;70258;-39
2023/11/07 10:04:39;;;;;;;;;;;;;;;31.79;72.50;100734.53;5099492;27;66918;-37
2023/11/07 10:07:09;;;;;;;;;;;;;;;31.77;72.49;100739.34;5100679;27;69850;-37
2023/11/07 10:09:40;;;;;;;;;;;;;;;31.75;72.85;100742.28;5094654;27;66416;-38
2023/11/07 10:12:14;;;;;;;;;;;;;;;31.80;72.68;100744.31;5100663;27;69715;-38
2023/11/07 10:14:44;;;;;;;;;;;;;;;31.79;72.76;100748.09;5100421;27;66485;-38
2023/11/07 10:17:20;;;;;;;;;;;;;;;31.78;72.97;100751.84;5079479;27;69719;-39
2023/11/07 10:20:11;;;;;;;;;;;;;;;31.73;73.35;100755.28;5082345;27;66100;-37
2023/11/07 10:22:44;;;;;;;;;;;;;;;31.73;73.38;100754.41;5098337;27;69029;-38
2023/11/07 10:25:25;;;;;;;;;;;;;;;31.68;73.53;100756.97;5099772;27;66586;-37
2023/11/07 10:27:59;;;;;;;;;;;;;;;31.69;73.77;100764.09;5095535;27;70582;-37
2023/11/07 10:30:35;;;;;;;;;;;;;;;31.72;73.91;100758.19;5100775;27;65819;-38
2023/11/07 10:33:06;;;;;;;;;;;;;;;31.69;73.76;100766.78;5101239;27;69889;-38
2023/11/07 10:35:56;;;;;;;;;;;;;;;31.66;73.94;100761.81;5102112;27;65357;-38
2023/11/07 10:38:28;;;;;;;;;;;;;;;31.64;74.04;100755.78;5101220;27;70334;-38
2023/11/07 10:41:01;;;;;;;;;;;;;;;31.66;74.29;100759.13;5100432;27;66159;-39
2023/11/07 10:43:32;;;;;;;;;;;;;;;31.67;74.12;100763.47;5100574;27;70653;-38
2023/11/07 10:46:03;;;;;;;;;;;;;;;31.69;74.08;100774.94;5098558;27;65829;-38
2023/11/07 10:48:38;;;;;;;;;;;;;;;31.69;74.62;100769.50;5100152;27;69133;-39
2023/11/07 10:51:11;;;;;;;;;;;;;;;31.69;74.55;100775.75;5099593;27;67376;-38
2023/11/07 10:53:41;;;;;;;;;;;;;;;31.71;74.68;100776.34;5098060;27;70392;-39
2023/11/07 10:56:18;;;;;;;;;;;;;;;31.68;75.80;100775.97;5100192;27;66358;-40
2023/11/07 10:59:24;;;;;;;;;;;;;;;31.69;75.56;100780.34;5088950;27;70616;-40
2023/11/07 11:01:57;;;;;;;;;;;;;;;31.69;75.74;100792.03;5090474;27;67009;-43
2023/11/07 11:04:31;;;;;;;;;;;;;;;31.75;74.68;100795.69;5082309;27;70343;-37
2023/11/07 11:07:02;;;;;;;;;;;;;;;31.80;73.74;100798.56;5084621;27;65691;-37
2023/11/07 11:09:35;;;;;;;;;;;;;;;31.82;72.83;100807.31;5083588;27;70291;-38
2023/11/07 11:12:06;;;;;;;;;;;;;;;31.86;72.84;100808.50;5083987;27;66074;-38
2023/11/07 11:14:37;;;;;;;;;;;;;;;31.87;72.57;100802.00;5102018;27;70656;-38
2023/11/07 11:17:17;;;;;;;;;;;;;;;31.87;72.62;100815.56;5102682;27;65966;-38
2023/11/07 11:20:00;;;;;;;;;;;;;;;31.88;72.07;100813.69;5093590;27;70185;-37
2023/11/07 11:22:41;;;;;;;;;;;;;;;31.89;71.94;100815.34;5099056;27;66967;-38
2023/11/07 11:25:23;;;;;;;;;;;;;;;31.89;71.74;100827.03;5102149;27;70655;-36
2023/11/07 11:28:01;;;;;;;;;;;;;;;31.90;71.59;100825.13;5102349;27;66950;-36
2023/11/07 11:30:37;;;;;;;;;;;;;;;31.89;71.54;100829.72;5104088;27;70372;-37
2023/11/07 11:33:09;;;;;;;;;;;;;;;31.89;71.35;100846.00;5099038;27;65694;-37
2023/11/07 11:35:41;;;;;;;;;;;;;;;31.89;71.26;100851.44;5103633;27;70625;-37
2023/11/07 11:38:15;;;;;;;;;;;;;;;31.89;71.31;100856.84;5104142;27;65918;-38
2023/11/07 11:40:45;;;;;;;;;;;;;;;31.88;71.14;100860.63;5103304;27;68873;-37
2023/11/07 11:43:17;;;;;;;;;;;;;;;31.88;71.20;100863.34;5098107;27;66258;-37
2023/11/07 11:45:47;;;;;;;;;;;;;;;31.87;71.02;100867.09;5099571;27;70625;-36
2023/11/07 11:48:39;;;;;;;;;;;;;;;31.86;70.98;100872.78;5105019;27;65852;-37
2023/11/07 11:51:28;;;;;;;;;;;;;;;31.85;71.12;100887.41;5098210;27;70396;-37
2023/11/07 11:53:59;;;;;;;;;;;;;;;31.84;71.08;100889.25;5104363;27;66127;-37
2023/11/07 11:56:29;;;;;;;;;;;;;;;31.84;71.25;100894.69;5105341;27;69861;-37
2023/11/07 11:59:03;;;;;;;;;;;;;;;31.81;71.19;100889.72;5104037;27;66461;-39
2023/11/07 12:01:49;;;;;;;;;;;;;;;31.82;71.37;100899.53;5099061;27;69949;-37
2023/11/07 12:04:33;;;;;;;;;;;;;;;31.80;71.02;100901.63;5085259;27;66551;-37
2023/11/07 12:07:06;;;;;;;;;;;;;;;31.80;71.05;100912.47;5105012;27;69844;-36
2023/11/07 12:09:44;;;;;;;;;;;;;;;31.78;71.12;100917.28;5096417;27;66881;-36
2023/11/07 12:12:15;;;;;;;;;;;;;;;31.78;70.94;100923.53;5100048;27;70519;-37
2023/11/07 12:14:48;;;;;;;;;;;;;;;31.77;71.11;100918.34;5104313;27;66155;-37
2023/11/07 12:17:19;;;;;;;;;;;;;;;31.76;71.11;100927.53;5104816;27;69997;-38
2023/11/07 12:19:49;;;;;;;;;;;;;;;31.58;74.20;100926.47;5104952;27;65411;-38
2023/11/07 12:22:19;;;;;;;;;;;;;;;31.22;75.04;100900.09;5103601;27;70383;-39
2023/11/07 12:24:49;;;;;;;;;;;;;;;31.30;75.48;100928.81;5103256;27;66962;-38
2023/11/07 12:27:19;;;;;;;;;;;;;;;31.22;76.57;100942.63;5103438;27;69657;-38
2023/11/07 12:29:49;;;;;;;;;;;;;;;31.20;77.27;100939.31;5104401;27;65199;-37
2023/11/07 12:32:20;;;;;;;;;;;;;;;31.20;78.42;100950.97;5103979;27;69653;-37
2023/11/07 12:34:50;;;;;;;;;;;;;;;31.18;78.67;100953.09;5085812;27;66594;-37
2023/11/07 12:37:22;;;;;;;;;;;;;;;31.19;79.11;100959.34;5103178;27;69683;-37
2023/11/07 12:39:53;;;;;;;;;;;;;;;31.15;78.83;100961.66;5103268;27;65816;-37
2023/11/07 12:42:23;;;;;;;;;;;;;;;31.16;79.27;100969.56;5105045;27;69707;-38
2023/11/07 12:44:53;;;;;;;;;;;;;;;31.15;79.53;100967.91;5103603;27;66786;-37
2023/11/07 12:47:23;;;;;;;;;;;;;;;31.14;79.84;100979.78;5105697;27;70820;-38
2023/11/07 12:49:54;;;;;;;;;;;;;;;31.16;79.76;100977.69;5105623;27;66877;-38
2023/11/07 12:52:24;;;;;;;;;;;;;;;31.15;80.22;100986.88;5104907;27;70834;-37
2023/11/07 12:54:54;;;;;;;;;;;;;;;31.15;80.51;100981.44;5105225;27;66788;-37
2023/11/07 12:57:36;;;;;;;;;;;;;;;31.17;80.89;100981.22;5086967;27;69926;-37